Time;durP1;ratioP1;P1;durP2;ratioP2;P2;SDS_P1;SDS_P2;PMS_P1;PMS_P2;Temp;Humidity;BMP_temperature;BMP_pressure;BME280_temperature;BME280_humidity;BME280_pressure;Samples;Min_cycle;Max_cycle;Signal;HPM_P1;HPM_P2
2021/07/25 00:01:16;;;;;;;13.90;9.27;;;;;;;18.65;54.22;100672.59;5044241;28;20451;-69
2021/07/25 00:03:42;;;;;;;12.27;9.70;;;;;;;18.73;54.53;100669.34;5040555;28;20510;-72
2021/07/25 00:06:14;;;;;;;16.67;11.90;;;;;;;18.73;54.84;100656.13;5038020;28;20060;-69
2021/07/25 00:08:39;;;;;;;13.73;10.13;;;;;;;18.78;54.74;100656.59;5037661;28;20490;-69
2021/07/25 00:11:05;;;;;;;15.57;10.50;;;;;;;18.79;54.22;100654.81;5039845;28;20036;-70
2021/07/25 00:13:31;;;;;;;14.15;10.68;;;;;;;18.76;54.19;100647.91;5038957;28;20478;-71
2021/07/25 00:15:56;;;;;;;16.48;10.32;;;;;;;18.68;53.98;100650.34;5039151;28;20067;-71
2021/07/25 00:18:22;;;;;;;15.98;9.65;;;;;;;18.71;54.17;100644.81;5038029;28;20064;-71
2021/07/25 00:20:47;;;;;;;17.50;11.57;;;;;;;18.64;54.28;100648.91;5037689;28;20513;-71
2021/07/25 00:23:17;;;;;;;13.68;9.00;;;;;;;18.66;53.65;100647.81;5040658;28;20517;-71
2021/07/25 00:25:44;;;;;;;12.60;9.23;;;;;;;18.64;53.81;100648.91;5036105;28;20052;-69
2021/07/25 00:28:14;;;;;;;17.40;9.57;;;;;;;18.55;54.07;100641.69;5040752;28;20422;-72
2021/07/25 00:30:40;;;;;;;13.35;8.77;;;;;;;18.51;53.93;100641.06;5038689;28;20056;-69
2021/07/25 00:33:05;;;;;;;12.82;8.45;;;;;;;18.41;54.09;100637.44;5034514;28;20060;-70
2021/07/25 00:35:31;;;;;;;12.07;8.27;;;;;;;18.36;54.27;100639.59;5035543;28;20417;-70
2021/07/25 00:37:56;;;;;;;12.93;8.77;;;;;;;18.31;54.73;100632.00;5035789;28;20040;-67
2021/07/25 00:40:41;;;;;;;18.35;9.65;;;;;;;18.23;54.67;100629.97;5043113;28;20052;-73
2021/07/25 00:43:07;;;;;;;13.85;8.15;;;;;;;18.21;55.00;100623.09;5039738;28;20140;-73
2021/07/25 00:45:33;;;;;;;17.40;9.18;;;;;;;18.17;54.87;100618.97;5043480;28;20086;-75
2021/07/25 00:47:59;;;;;;;13.40;8.68;;;;;;;18.24;54.83;100615.75;5052879;28;20569;-71
2021/07/25 00:50:25;;;;;;;15.25;8.80;;;;;;;18.19;54.92;100617.94;5040506;28;20029;-70
2021/07/25 00:52:51;;;;;;;12.93;8.13;;;;;;;18.17;55.14;100622.47;5041295;28;20030;-70
2021/07/25 00:55:19;;;;;;;14.75;9.27;;;;;;;18.08;55.34;100614.41;5030158;28;20033;-69
2021/07/25 00:57:45;;;;;;;16.83;9.57;;;;;;;18.02;55.75;100627.09;5046858;28;20043;-69
2021/07/25 01:00:11;;;;;;;16.13;10.18;;;;;;;18.05;55.49;100626.88;5043113;28;20037;-70
2021/07/25 01:02:58;;;;;;;14.88;8.93;;;;;;;18.03;55.66;100626.16;5044518;28;20173;-70
2021/07/25 01:05:41;;;;;;;15.60;8.93;;;;;;;18.04;56.00;100619.91;5040207;28;20170;-70
2021/07/25 01:08:12;;;;;;;10.80;9.10;;;;;;;18.22;55.43;100619.50;5041657;28;20128;-70
2021/07/25 01:10:41;;;;;;;19.23;8.13;;;;;;;18.35;55.14;100612.28;5044210;28;20025;-70
2021/07/25 01:13:23;;;;;;;14.25;9.18;;;;;;;18.31;54.94;100605.56;5034369;28;20060;-71
2021/07/25 01:15:49;;;;;;;11.32;8.77;;;;;;;18.31;55.37;100616.13;5041814;28;20028;-69
2021/07/25 01:18:14;;;;;;;18.20;9.50;;;;;;;18.36;55.26;100607.84;5046488;28;20518;-68
2021/07/25 01:20:40;;;;;;;15.43;10.15;;;;;;;18.36;55.04;100606.03;5043834;28;20033;-70
2021/07/25 01:23:05;;;;;;;14.05;9.57;;;;;;;18.41;55.17;100611.00;5042343;28;20041;-70
2021/07/25 01:25:31;;;;;;;14.07;9.60;;;;;;;18.38;54.67;100604.09;5033606;28;20550;-70
2021/07/25 01:28:01;;;;;;;13.70;9.40;;;;;;;18.31;54.85;100605.56;5033044;28;20033;-70
2021/07/25 01:30:30;;;;;;;16.67;9.43;;;;;;;18.31;55.20;100599.44;5041084;28;20041;-72
2021/07/25 01:33:03;;;;;;;15.57;10.13;;;;;;;18.31;55.17;100589.69;5041539;28;20056;-67
2021/07/25 01:35:30;;;;;;;18.08;8.90;;;;;;;18.36;55.39;100595.44;5047949;28;20044;-73
2021/07/25 01:37:56;;;;;;;19.40;10.90;;;;;;;18.45;54.98;100591.25;5041013;28;20036;-68
2021/07/25 01:40:24;;;;;;;13.50;8.40;;;;;;;18.55;54.58;100586.09;5041627;28;20375;-69
2021/07/25 01:42:51;;;;;;;14.45;10.15;;;;;;;18.60;54.57;100584.75;5041895;28;20056;-67
2021/07/25 01:45:17;;;;;;;14.45;9.43;;;;;;;18.61;54.66;100582.97;5044794;28;20033;-67
2021/07/25 01:47:42;;;;;;;13.73;9.32;;;;;;;18.62;54.41;100580.19;5040280;28;20486;-67
2021/07/25 01:50:09;;;;;;;15.60;9.27;;;;;;;18.66;54.24;100578.16;5045232;28;20036;-67
2021/07/25 01:52:35;;;;;;;16.15;9.85;;;;;;;18.69;54.33;100578.72;5044959;28;20148;-67
2021/07/25 01:55:02;;;;;;;15.00;9.45;;;;;;;18.64;54.51;100569.50;5037609;28;20164;-67
2021/07/25 01:57:27;;;;;;;17.85;10.75;;;;;;;18.68;54.43;100570.94;5039646;28;20087;-67
2021/07/25 01:59:53;;;;;;;15.68;9.75;;;;;;;18.75;54.41;100558.06;5037940;28;20028;-67
2021/07/25 02:02:18;;;;;;;19.85;10.75;;;;;;;18.74;54.20;100565.13;5044104;28;20261;-67
2021/07/25 02:04:44;;;;;;;15.68;10.75;;;;;;;18.71;54.44;100554.78;5040165;28;20345;-66
2021/07/25 02:07:10;;;;;;;17.60;10.40;;;;;;;18.85;53.92;100557.19;5043354;28;20405;-67
2021/07/25 02:09:36;;;;;;;14.27;10.82;;;;;;;18.83;54.02;100559.13;5038214;28;20039;-67
2021/07/25 02:12:06;;;;;;;16.08;10.98;;;;;;;18.80;53.78;100559.34;5037163;28;20044;-70
2021/07/25 02:14:33;;;;;;;18.40;10.07;;;;;;;18.82;53.82;100562.72;5039141;28;20336;-71
2021/07/25 02:17:00;;;;;;;14.45;9.75;;;;;;;18.80;53.90;100558.50;5041974;28;20078;-70
2021/07/25 02:19:26;;;;;;;17.75;9.57;;;;;;;18.83;54.20;100559.13;5038718;28;20029;-70
2021/07/25 02:21:51;;;;;;;18.40;10.75;;;;;;;18.92;53.91;100548.78;5037543;28;20044;-69
2021/07/25 02:24:19;;;;;;;13.27;9.82;;;;;;;18.89;54.04;100552.50;5036852;28;20032;-71
2021/07/25 02:26:45;;;;;;;15.95;10.88;;;;;;;18.83;54.32;100551.19;5058592;28;20443;-72
2021/07/25 02:29:11;;;;;;;21.20;12.13;;;;;;;18.87;53.97;100549.97;5039587;28;20026;-65
2021/07/25 02:31:36;;;;;;;14.82;10.18;;;;;;;18.90;54.17;100554.22;5047503;28;20110;-66
2021/07/25 02:34:02;;;;;;;18.85;11.40;;;;;;;18.94;53.87;100555.63;5040774;28;20029;-68
2021/07/25 02:36:27;;;;;;;20.65;12.63;;;;;;;18.86;54.07;100553.56;5038528;28;20095;-68
2021/07/25 02:38:52;;;;;;;17.63;12.30;;;;;;;18.64;54.39;100549.16;5039579;28;20112;-68
2021/07/25 02:41:18;;;;;;;21.00;11.00;;;;;;;18.45;55.08;100549.78;5038419;28;20057;-68
2021/07/25 02:43:43;;;;;;;19.58;12.35;;;;;;;18.49;54.77;100542.41;5042907;28;20032;-71
2021/07/25 02:46:09;;;;;;;19.48;12.80;;;;;;;18.12;55.94;100541.75;5043492;28;20117;-68
2021/07/25 02:48:36;;;;;;;18.80;12.57;;;;;;;18.24;55.92;100540.88;5052120;28;20544;-68
2021/07/25 02:51:02;;;;;;;20.90;13.40;;;;;;;18.21;56.07;100538.47;5040678;28;20840;-68
2021/07/25 02:53:27;;;;;;;28.42;15.98;;;;;;;18.13;56.34;100535.53;5044122;28;20287;-67
2021/07/25 02:55:53;;;;;;;27.98;13.82;;;;;;;18.12;56.26;100532.06;5036647;28;20041;-70
2021/07/25 02:58:19;;;;;;;21.48;14.13;;;;;;;18.15;56.07;100531.81;5045601;28;20025;-71
2021/07/25 03:00:45;;;;;;;21.08;13.85;;;;;;;18.24;56.17;100532.94;5034385;28;20033;-67
2021/07/25 03:03:10;;;;;;;24.23;14.68;;;;;;;18.25;56.25;100526.66;5039313;28;20308;-67
2021/07/25 03:05:36;;;;;;;20.35;11.85;;;;;;;18.29;56.13;100519.34;5044289;28;20611;-67
2021/07/25 03:08:01;;;;;;;26.50;15.30;;;;;;;18.35;56.07;100529.44;5043056;28;20687;-67
2021/07/25 03:10:27;;;;;;;22.38;15.60;;;;;;;18.32;55.87;100533.19;5034751;28;20025;-67
2021/07/25 03:12:53;;;;;;;24.13;15.35;;;;;;;18.33;55.82;100528.72;5036910;28;20041;-68
2021/07/25 03:15:18;;;;;;;25.10;15.25;;;;;;;18.32;55.71;100522.59;5047131;28;20036;-67
2021/07/25 03:17:44;;;;;;;25.05;15.15;;;;;;;18.39;55.28;100526.44;5039557;28;20084;-66
2021/07/25 03:20:10;;;;;;;27.05;15.80;;;;;;;18.44;55.65;100526.06;5036521;28;20486;-68
2021/07/25 03:22:35;;;;;;;21.42;15.80;;;;;;;18.43;55.66;100521.72;5038504;28;20052;-69
2021/07/25 03:25:02;;;;;;;24.92;15.32;;;;;;;18.45;55.70;100525.97;5028169;28;20029;-70
2021/07/25 03:27:28;;;;;;;24.45;15.02;;;;;;;18.43;55.91;100522.59;5041513;28;20171;-70
2021/07/25 03:29:53;;;;;;;27.15;16.52;;;;;;;18.50;55.71;100524.72;5042036;28;20111;-67
2021/07/25 03:32:19;;;;;;;22.35;15.00;;;;;;;18.42;55.83;100526.19;5042377;28;20036;-67
2021/07/25 03:34:46;;;;;;;26.65;16.23;;;;;;;18.35;56.07;100532.09;5040539;28;20016;-68
2021/07/25 03:37:12;;;;;;;24.88;16.08;;;;;;;18.43;55.92;100530.53;5043774;28;20038;-67
2021/07/25 03:39:37;;;;;;;25.52;16.90;;;;;;;18.51;55.84;100532.56;5055984;28;20096;-68
2021/07/25 03:42:03;;;;;;;26.17;17.65;;;;;;;18.52;55.74;100528.97;5041590;28;20119;-69
2021/07/25 03:44:29;;;;;;;25.98;18.65;;;;;;;18.45;55.78;100525.97;5038593;28;20437;-66
2021/07/25 03:46:55;;;;;;;26.10;17.15;;;;;;;18.32;56.27;100519.94;5037929;28;20041;-67
2021/07/25 03:49:21;;;;;;;26.63;16.67;;;;;;;18.43;55.95;100529.66;5043222;28;20033;-68
2021/07/25 03:51:46;;;;;;;27.55;18.60;;;;;;;18.41;55.67;100521.88;5059913;28;20025;-69
2021/07/25 03:54:13;;;;;;;31.52;18.65;;;;;;;18.32;56.38;100519.09;5041805;28;20485;-71
2021/07/25 03:56:39;;;;;;;31.95;19.02;;;;;;;18.12;56.60;100520.59;5038718;28;20120;-69
2021/07/25 03:59:05;;;;;;;32.38;20.48;;;;;;;18.25;56.18;100521.38;5040095;28;20076;-69
2021/07/25 04:01:31;;;;;;;35.30;20.20;;;;;;;18.15;56.56;100520.38;5037719;28;20029;-68
2021/07/25 04:03:57;;;;;;;43.15;21.48;;;;;;;18.33;56.13;100521.63;5040204;28;20045;-68
2021/07/25 04:06:22;;;;;;;31.30;20.38;;;;;;;18.25;56.26;100521.38;5036677;28;20116;-68
2021/07/25 04:08:48;;;;;;;31.98;19.67;;;;;;;18.14;56.38;100521.34;5037239;28;20029;-68
2021/07/25 04:11:20;;;;;;;29.10;18.08;;;;;;;18.22;56.32;100517.16;5035666;28;20025;-69
2021/07/25 04:13:47;;;;;;;38.55;22.73;;;;;;;18.15;56.48;100517.75;5038393;28;20120;-69
2021/07/25 04:16:12;;;;;;;37.22;21.80;;;;;;;18.28;55.97;100518.50;5043390;28;20071;-68
2021/07/25 04:18:38;;;;;;;42.58;24.55;;;;;;;18.16;55.97;100519.41;5041607;28;20424;-67
2021/07/25 04:21:03;;;;;;;40.60;24.38;;;;;;;18.07;56.37;100520.97;5041928;28;20033;-67
2021/07/25 04:23:28;;;;;;;45.08;24.40;;;;;;;18.04;56.42;100506.19;5038576;28;20075;-68
2021/07/25 04:25:54;;;;;;;40.97;23.42;;;;;;;18.19;56.29;100516.59;5044583;28;20032;-70
2021/07/25 04:28:20;;;;;;;41.70;23.17;;;;;;;18.10;56.37;100511.97;5033594;28;20527;-69
2021/07/25 04:30:45;;;;;;;36.42;21.80;;;;;;;17.95;56.88;100517.47;5042717;28;20028;-69
2021/07/25 04:33:12;;;;;;;37.28;23.20;;;;;;;18.24;55.92;100503.81;5039039;28;20562;-69
2021/07/25 04:35:39;;;;;;;37.78;23.98;;;;;;;18.30;55.78;100513.94;5033115;28;20698;-69
2021/07/25 04:38:06;;;;;;;37.83;23.90;;;;;;;18.05;56.29;100505.25;5037096;28;20041;-69
2021/07/25 04:40:31;;;;;;;36.55;22.17;;;;;;;18.02;56.23;100502.81;5045184;28;20039;-67
2021/07/25 04:42:58;;;;;;;39.35;23.15;;;;;;;18.18;55.89;100514.84;5044380;28;20044;-65
2021/07/25 04:45:27;;;;;;;39.45;22.10;;;;;;;18.17;56.08;100513.19;5040840;28;20058;-66
2021/07/25 04:48:01;;;;;;;38.40;23.00;;;;;;;18.02;56.40;100510.75;5039572;28;20037;-65
2021/07/25 04:50:33;;;;;;;40.60;22.92;;;;;;;18.19;55.97;100519.22;5038474;28;20048;-65
2021/07/25 04:53:01;;;;;;;39.30;23.02;;;;;;;18.34;55.75;100518.03;5042443;28;20086;-65
2021/07/25 04:55:32;;;;;;;38.42;23.30;;;;;;;18.32;55.63;100522.59;5044584;28;20048;-66
2021/07/25 04:58:06;;;;;;;43.72;23.15;;;;;;;18.21;55.62;100519.94;5039238;28;20216;-65
2021/07/25 05:00:32;;;;;;;36.97;22.30;;;;;;;17.94;56.44;100518.44;5036726;28;20033;-67
2021/07/25 05:03:03;;;;;;;38.92;20.92;;;;;;;18.00;56.42;100514.47;5055647;28;20516;-66
2021/07/25 05:05:29;;;;;;;38.33;20.87;;;;;;;17.91;56.75;100518.66;5044600;28;20033;-66
2021/07/25 05:07:59;;;;;;;34.20;20.85;;;;;;;17.91;57.12;100517.84;5045366;28;20033;-66
2021/07/25 05:10:25;;;;;;;29.88;19.10;;;;;;;17.88;57.00;100524.22;5058517;28;20029;-67
2021/07/25 05:13:12;;;;;;;33.55;18.75;;;;;;;17.81;57.13;100528.28;5037716;28;20664;-67
2021/07/25 05:15:44;;;;;;;24.52;14.40;;;;;;;17.58;58.14;100533.50;5039014;28;20111;-67
2021/07/25 05:18:20;;;;;;;21.27;13.52;;;;;;;17.59;57.77;100534.34;5044094;28;20108;-67
2021/07/25 05:20:58;;;;;;;20.83;11.75;;;;;;;17.70;57.50;100541.47;5042975;28;20056;-67
2021/07/25 05:23:37;;;;;;;15.00;9.02;;;;;;;17.59;57.71;100539.63;5049605;28;20033;-67
2021/07/25 05:26:08;;;;;;;10.32;5.72;;;;;;;17.22;58.39;100553.75;5037449;28;20421;-68
2021/07/25 05:28:36;;;;;;;6.57;3.95;;;;;;;17.28;57.81;100546.31;5041100;28;20098;-68
2021/07/25 05:31:04;;;;;;;8.50;3.35;;;;;;;17.00;57.69;100564.16;5041995;28;20029;-67
2021/07/25 05:33:29;;;;;;;3.10;2.05;;;;;;;17.06;57.38;100563.72;5042912;28;20025;-67
2021/07/25 05:35:54;;;;;;;2.90;2.17;;;;;;;17.08;57.58;100564.47;5040902;28;20555;-68
2021/07/25 05:38:20;;;;;;;6.22;2.60;;;;;;;17.32;56.88;100568.91;5046522;28;20528;-68
2021/07/25 05:40:45;;;;;;;5.25;2.20;;;;;;;17.26;56.66;100570.19;5032814;28;20410;-67
2021/07/25 05:43:11;;;;;;;2.72;2.33;;;;;;;17.39;56.97;100570.97;5039183;28;20040;-67
2021/07/25 05:45:36;;;;;;;4.25;2.78;;;;;;;17.68;56.18;100575.09;5044583;28;20391;-66
2021/07/25 05:48:02;;;;;;;3.88;2.92;;;;;;;17.74;55.11;100580.78;5036016;28;20036;-67
2021/07/25 05:50:28;;;;;;;3.50;2.78;;;;;;;18.47;54.14;100578.75;5036845;28;20037;-68
2021/07/25 05:52:55;;;;;;;3.28;2.85;;;;;;;20.36;48.33;100576.56;5036725;28;20073;-69
2021/07/25 05:55:23;;;;;;;2.97;2.70;;;;;;;19.41;49.35;100581.84;5033190;28;20022;-67
2021/07/25 05:57:49;;;;;;;2.97;2.67;;;;;;;19.21;51.09;100578.19;5037016;28;20044;-67
2021/07/25 06:00:15;;;;;;;7.68;3.53;;;;;;;19.74;49.76;100583.56;5031323;28;20522;-68
2021/07/25 06:03:08;;;;;;;6.72;3.30;;;;;;;22.34;43.04;100576.47;5040697;28;20525;-68
2021/07/25 06:05:34;;;;;;;;;;;;;;;23.46;41.04;100583.44;5042917;28;20424;-66
2021/07/25 06:08:02;;;;;;;4.35;2.67;;;;;;;23.96;40.47;100581.03;5040750;28;20210;-66
2021/07/25 06:10:29;;;;;;;4.82;3.78;;;;;;;22.82;41.69;100590.59;5038566;28;20124;-67
2021/07/25 06:12:56;;;;;;;6.03;2.88;;;;;;;21.23;45.09;100591.13;5056269;28;20167;-66
2021/07/25 06:15:22;;;;;;;4.80;2.97;;;;;;;20.08;48.32;100599.28;5040128;28;20033;-70
2021/07/25 06:17:48;;;;;;;4.70;3.50;;;;;;;19.46;49.77;100595.59;5043634;28;20028;-70
2021/07/25 06:20:13;;;;;;;5.13;3.28;;;;;;;19.06;50.83;100590.88;5043840;28;20406;-70
2021/07/25 06:22:55;;;;;;;5.13;3.72;;;;;;;18.75;51.12;100595.13;5050315;28;20030;-68
2021/07/25 06:25:28;;;;;;;4.90;3.55;;;;;;;18.72;51.82;100598.84;5039707;28;20034;-66
2021/07/25 06:27:56;;;;;;;4.53;3.90;;;;;;;18.63;51.93;100594.25;5045378;28;20118;-69
2021/07/25 06:30:23;;;;;;;7.68;4.28;;;;;;;18.34;52.31;100593.88;5033677;28;20394;-70
2021/07/25 06:33:05;;;;;;;6.90;4.15;;;;;;;18.32;52.98;100601.97;5034291;28;20325;-69
2021/07/25 06:35:33;;;;;;;5.70;4.13;;;;;;;18.43;52.72;100601.97;5039939;28;20030;-70
2021/07/25 06:38:04;;;;;;;5.10;3.78;;;;;;;18.30;52.89;100598.59;5041788;28;20037;-69
2021/07/25 06:40:30;;;;;;;6.18;4.68;;;;;;;18.22;52.78;100603.63;5057655;28;20466;-69
2021/07/25 06:42:57;;;;;;;6.05;4.40;;;;;;;18.36;52.54;100607.84;5036720;28;20048;-69
2021/07/25 06:45:24;;;;;;;5.40;4.25;;;;;;;18.33;52.39;100600.16;5033587;28;20421;-69
2021/07/25 06:47:50;;;;;;;5.18;4.03;;;;;;;18.64;52.21;100601.25;5050681;28;20037;-70
2021/07/25 06:50:21;;;;;;;5.90;4.10;;;;;;;18.95;50.93;100612.09;5043532;28;20024;-70
2021/07/25 06:52:47;;;;;;;5.72;3.75;;;;;;;19.13;50.18;100607.97;5044237;28;20469;-67
2021/07/25 06:55:13;;;;;;;6.55;4.53;;;;;;;19.96;49.04;100610.94;5040467;28;20059;-65
2021/07/25 06:57:40;;;;;;;6.13;3.92;;;;;;;22.23;43.63;100605.94;5041531;28;20024;-68
2021/07/25 07:00:06;;;;;;;3.97;3.38;;;;;;;23.62;39.38;100613.75;5038828;28;20288;-67
2021/07/25 07:02:48;;;;;;;4.53;4.07;;;;;;;23.49;40.08;100617.81;5029202;28;20033;-69
2021/07/25 07:05:18;;;;;;;5.20;3.85;;;;;;;22.23;41.87;100616.59;5037296;28;20037;-67
2021/07/25 07:07:48;;;;;;;5.40;3.75;;;;;;;21.85;42.61;100619.13;5032019;28;20059;-67
2021/07/25 07:10:15;;;;;;;6.38;3.88;;;;;;;22.13;42.94;100620.09;5042824;28;20550;-68
2021/07/25 07:12:41;;;;;;;4.72;3.97;;;;;;;21.51;43.92;100605.41;5042594;28;20041;-67
2021/07/25 07:15:08;;;;;;;7.20;4.93;;;;;;;21.34;44.12;100609.59;5041237;28;20028;-68
2021/07/25 07:17:34;;;;;;;8.48;4.00;;;;;;;21.24;44.34;100614.03;5039501;28;20080;-68
2021/07/25 07:19:59;;;;;;;3.70;3.30;;;;;;;21.19;44.19;100616.28;5040036;28;20069;-67
2021/07/25 07:22:29;;;;;;;9.45;6.30;;;;;;;20.83;45.00;100616.72;5035758;28;20036;-67
2021/07/25 07:24:56;;;;;;;8.60;4.45;;;;;;;21.19;45.14;100624.25;5036858;28;20038;-68
2021/07/25 07:27:22;;;;;;;9.32;4.80;;;;;;;22.43;42.63;100612.00;5045522;28;20025;-66
2021/07/25 07:29:48;;;;;;;7.05;5.60;;;;;;;23.45;40.41;100613.75;5039584;28;20041;-68
2021/07/25 07:32:14;;;;;;;7.97;4.35;;;;;;;23.35;39.92;100614.69;5035254;28;20139;-69
2021/07/25 07:34:39;;;;;;;9.18;4.95;;;;;;;23.02;41.82;100626.78;5036848;28;20116;-67
2021/07/25 07:37:05;;;;;;;7.40;5.60;;;;;;;21.70;43.27;100632.00;5036811;28;20037;-66
2021/07/25 07:39:30;;;;;;;6.05;5.03;;;;;;;20.61;45.45;100644.28;5047510;28;20037;-67
2021/07/25 07:41:56;;;;;;;10.43;5.82;;;;;;;20.21;46.45;100636.25;5039683;28;20048;-67
2021/07/25 07:44:22;;;;;;;9.20;7.13;;;;;;;20.44;47.34;100643.09;5038168;28;20028;-67
2021/07/25 07:46:47;;;;;;;11.82;6.75;;;;;;;20.49;45.91;100655.97;5034459;28;20456;-69
2021/07/25 07:49:13;;;;;;;11.43;6.55;;;;;;;22.06;43.51;100648.22;5041167;28;20115;-66
2021/07/25 07:51:38;;;;;;;9.68;7.53;;;;;;;22.63;41.53;100650.06;5042099;28;20034;-67
2021/07/25 07:54:04;;;;;;;8.93;6.90;;;;;;;22.69;41.95;100661.00;5040372;28;20127;-68
2021/07/25 07:56:31;;;;;;;7.88;6.25;;;;;;;23.31;40.74;100660.47;5038433;28;20154;-68
2021/07/25 07:58:57;;;;;;;8.75;6.70;;;;;;;26.04;36.00;100658.09;5040241;28;20040;-68
2021/07/25 08:01:22;;;;;;;8.70;5.85;;;;;;;27.59;33.39;100661.25;5038797;28;20025;-69
2021/07/25 08:03:48;;;;;;;6.47;5.55;;;;;;;25.59;35.93;100670.13;5036692;28;20050;-67
2021/07/25 08:06:13;;;;;;;8.80;6.30;;;;;;;25.00;37.97;100681.66;5036865;28;20488;-67
2021/07/25 08:08:39;;;;;;;7.72;6.75;;;;;;;23.41;39.24;100680.75;5040388;28;20037;-70
2021/07/25 08:11:04;;;;;;;10.95;7.25;;;;;;;23.07;40.67;100688.47;5040588;28;20079;-67
2021/07/25 08:13:30;;;;;;;9.35;6.85;;;;;;;21.96;42.30;100690.00;5042639;28;20061;-67
2021/07/25 08:15:55;;;;;;;12.20;7.40;;;;;;;21.65;43.04;100682.13;5043199;28;20055;-66
2021/07/25 08:18:21;;;;;;;13.05;8.15;;;;;;;21.29;43.92;100689.75;5041455;28;20126;-68
2021/07/25 08:20:46;;;;;;;9.65;6.28;;;;;;;21.83;42.79;100692.09;5039086;28;20025;-68
2021/07/25 08:23:12;;;;;;;8.25;6.28;;;;;;;21.50;43.20;100694.97;5040481;28;20072;-67
2021/07/25 08:25:37;;;;;;;11.77;7.13;;;;;;;21.65;42.87;100700.75;5041686;28;20028;-67
2021/07/25 08:28:03;;;;;;;10.43;7.22;;;;;;;22.46;41.24;100697.78;5038441;28;20151;-68
2021/07/25 08:30:30;;;;;;;12.80;6.18;;;;;;;22.59;41.95;100708.97;5039187;28;20033;-67
2021/07/25 08:32:55;;;;;;;12.57;9.05;;;;;;;22.57;41.92;100710.94;5034635;28;20060;-67
2021/07/25 08:35:21;;;;;;;15.02;9.57;;;;;;;22.20;42.32;100712.69;5032862;28;20615;-67
2021/07/25 08:37:46;;;;;;;11.75;8.70;;;;;;;21.94;43.22;100718.56;5042921;28;20455;-68
2021/07/25 08:40:14;;;;;;;13.15;8.80;;;;;;;21.52;44.03;100724.09;5048406;28;20040;-67
2021/07/25 08:42:46;;;;;;;14.80;9.07;;;;;;;22.13;42.13;100718.56;5040537;28;20032;-66
2021/07/25 08:45:13;;;;;;;12.30;9.13;;;;;;;22.60;41.76;100720.47;5038341;28;20076;-66
2021/07/25 08:47:40;;;;;;;12.52;9.05;;;;;;;22.34;41.77;100725.56;5044431;28;20037;-67
2021/07/25 08:50:07;;;;;;;16.25;9.88;;;;;;;21.70;43.71;100725.09;5034011;28;20021;-67
2021/07/25 08:52:37;;;;;;;15.05;9.73;;;;;;;22.37;41.44;100728.78;5042965;28;20033;-68
2021/07/25 08:55:06;;;;;;;11.93;8.53;;;;;;;23.81;38.66;100726.63;5033078;28;20028;-68
2021/07/25 08:57:35;;;;;;;14.02;9.27;;;;;;;24.85;35.19;100731.34;5039370;28;20320;-67
2021/07/25 09:00:00;;;;;;;14.60;9.90;;;;;;;25.37;34.90;100727.72;5040582;28;20041;-68
2021/07/25 09:02:31;;;;;;;11.75;9.00;;;;;;;27.31;32.91;100723.47;5037308;28;20040;-68
2021/07/25 09:04:58;;;;;;;15.10;10.33;;;;;;;28.13;30.43;100720.28;5048070;28;20044;-68
2021/07/25 09:07:30;;;;;;;14.82;8.13;;;;;;;26.49;33.83;100715.63;5038279;28;20083;-67
2021/07/25 09:10:08;;;;;;;15.63;10.25;;;;;;;26.88;33.56;100731.00;5050302;28;20505;-67
2021/07/25 09:12:35;;;;;;;13.25;9.68;;;;;;;26.37;33.80;100733.91;5044991;28;20033;-68
2021/07/25 09:15:07;;;;;;;18.52;10.05;;;;;;;25.74;35.33;100731.88;5045143;28;20032;-68
2021/07/25 09:17:33;;;;;;;12.05;9.35;;;;;;;25.65;36.49;100728.34;5044308;28;20091;-67
2021/07/25 09:20:17;;;;;;;14.07;9.60;;;;;;;26.78;33.83;100736.56;5032524;28;20029;-67
2021/07/25 09:22:48;;;;;;;14.73;9.23;;;;;;;27.04;33.24;100735.47;5033483;28;20039;-69
2021/07/25 09:25:17;;;;;;;14.70;10.88;;;;;;;26.52;33.62;100725.22;5038974;28;20033;-68
2021/07/25 09:27:42;;;;;;;15.25;10.35;;;;;;;26.83;33.52;100731.53;5035722;28;20194;-70
2021/07/25 09:30:19;;;;;;;15.93;10.18;;;;;;;27.17;33.21;100730.41;5033732;28;20033;-69
2021/07/25 09:32:45;;;;;;;13.55;10.73;;;;;;;27.25;33.23;100738.44;5039669;28;20041;-67
2021/07/25 09:35:27;;;;;;;14.13;11.23;;;;;;;26.14;34.71;100738.31;5036266;28;20038;-68
2021/07/25 09:37:54;;;;;;;14.00;10.40;;;;;;;26.44;34.78;100744.78;5040125;28;20041;-68
2021/07/25 09:40:31;;;;;;;16.17;11.43;;;;;;;26.24;34.31;100744.31;5036996;28;20028;-69
2021/07/25 09:43:09;;;;;;;14.55;10.70;;;;;;;26.62;34.75;100752.66;5039633;28;20036;-69
2021/07/25 09:45:50;;;;;;;15.00;9.80;;;;;;;26.26;33.91;100756.53;5037288;28;20041;-67
2021/07/25 09:48:20;;;;;;;14.20;9.10;;;;;;;25.57;35.60;100763.94;5039981;28;20372;-68
2021/07/25 09:50:46;;;;;;;12.45;9.40;;;;;;;25.79;32.93;100767.00;5038188;28;20555;-66
2021/07/25 09:53:13;;;;;;;10.68;8.38;;;;;;;25.50;33.81;100772.75;5040854;28;20029;-68
2021/07/25 09:55:39;;;;;;;14.02;7.53;;;;;;;24.68;35.51;100772.31;5048070;28;20056;-69
2021/07/25 09:58:04;;;;;;;10.95;7.43;;;;;;;26.56;32.52;100766.72;5035424;28;20517;-67
2021/07/25 10:00:46;;;;;;;11.55;8.10;;;;;;;26.25;31.97;100770.94;5040386;28;20044;-67
2021/07/25 10:03:18;;;;;;;15.25;7.15;;;;;;;26.47;33.33;100773.94;5040727;28;20502;-66
2021/07/25 10:05:45;;;;;;;;;;;;;;;27.18;32.15;100775.00;5039270;28;20476;-68
2021/07/25 10:08:15;;;;;;;12.05;8.40;;;;;;;26.42;31.46;100778.97;5037640;28;19944;-68
2021/07/25 10:10:42;;;;;;;10.80;7.65;;;;;;;27.13;32.16;100784.59;5034275;28;20063;-68
2021/07/25 10:13:08;;;;;;;12.35;7.88;;;;;;;27.18;31.91;100787.56;5040968;28;20367;-68
2021/07/25 10:15:36;;;;;;;11.05;8.80;;;;;;;26.42;33.63;100778.97;5039137;28;20364;-68
2021/07/25 10:18:01;;;;;;;9.73;6.70;;;;;;;27.47;30.96;100774.38;5034650;28;20033;-68
2021/07/25 10:20:28;;;;;;;10.32;6.40;;;;;;;27.57;30.31;100781.38;5027541;28;20041;-66
2021/07/25 10:22:59;;;;;;;10.13;7.22;;;;;;;28.42;29.00;100780.47;5038680;28;20033;-70
2021/07/25 10:25:27;;;;;;;;;;;;;;;27.96;29.90;100770.56;5037742;28;20056;-66
2021/07/25 10:27:57;;;;;;;7.25;6.53;;;;;;;27.93;29.61;100774.44;5041966;28;19944;-67
2021/07/25 10:30:23;;;;;;;10.18;7.72;;;;;;;26.95;31.07;100780.25;5043120;28;20037;-67
2021/07/25 10:32:49;;;;;;;7.78;6.32;;;;;;;26.04;32.35;100775.91;5041977;28;20096;-68
2021/07/25 10:35:15;;;;;;;9.73;7.07;;;;;;;25.85;32.64;100780.56;5039508;28;20585;-67
2021/07/25 10:37:41;;;;;;;8.75;7.10;;;;;;;25.12;33.90;100785.63;5040368;28;20466;-67
2021/07/25 10:40:10;;;;;;;9.35;6.75;;;;;;;24.92;34.61;100791.19;5046607;28;20529;-68
2021/07/25 10:42:45;;;;;;;10.10;6.73;;;;;;;24.36;36.64;100793.25;5043328;28;20053;-67
2021/07/25 10:45:11;;;;;;;7.63;6.55;;;;;;;25.24;34.54;100789.69;5042411;28;20033;-67
2021/07/25 10:47:37;;;;;;;8.88;6.50;;;;;;;25.72;34.08;100790.09;5044037;28;20036;-67
2021/07/25 10:50:02;;;;;;;10.45;6.63;;;;;;;26.45;32.88;100794.72;5044603;28;20447;-68
2021/07/25 10:52:59;;;;;;;9.15;6.78;;;;;;;27.87;31.98;100791.25;5047138;28;20060;-69
2021/07/25 10:55:34;;;;;;;8.60;6.63;;;;;;;28.27;29.96;100786.63;5039637;28;20032;-66
2021/07/25 10:58:03;;;;;;;7.75;6.63;;;;;;;26.93;31.27;100801.03;5040755;28;20071;-67
2021/07/25 11:01:04;;;;;;;9.20;6.15;;;;;;;27.23;32.17;100798.66;5040458;28;20033;-68
2021/07/25 11:03:30;;;;;;;10.10;7.07;;;;;;;27.25;31.49;100793.91;4984269;28;20174;-67
2021/07/25 11:06:01;;;;;;;11.40;7.05;;;;;;;26.63;32.05;100797.25;5021415;28;20049;-68
2021/07/25 11:08:31;;;;;;;7.20;6.13;;;;;;;26.43;32.21;100791.38;5037418;28;20080;-68
2021/07/25 11:10:56;;;;;;;7.25;5.90;;;;;;;27.53;30.73;100794.28;5041994;28;20124;-69
2021/07/25 11:13:38;;;;;;;9.80;7.15;;;;;;;27.44;30.64;100800.72;5038776;28;20108;-68
2021/07/25 11:16:30;;;;;;;11.07;7.00;;;;;;;27.15;30.46;100801.34;5041259;28;20094;-69
2021/07/25 11:18:59;;;;;;;7.18;6.32;;;;;;;27.77;31.54;100806.78;5035268;28;20543;-68
2021/07/25 11:21:31;;;;;;;7.68;6.88;;;;;;;26.79;32.05;100807.09;5036121;28;20153;-68